Time;durP1;ratioP1;P1;durP2;ratioP2;P2;SDS_P1;SDS_P2;PMS_P1;PMS_P2;Temp;Humidity;BMP_temperature;BMP_pressure;BME280_temperature;BME280_humidity;BME280_pressure;Samples;Min_cycle;Max_cycle;Signal;HPM_P1;HPM_P2
2023/12/18 00:00:23;;;;;;;;;;;2.60;99.90;;;;;;5027751;28;19913;-85
2023/12/18 00:02:48;;;;;;;;;;;2.60;99.90;;;;;;5046472;28;20007;-86
2023/12/18 00:05:14;;;;;;;;;;;2.60;99.90;;;;;;5044197;28;19979;-86
2023/12/18 00:07:39;;;;;;;;;;;2.60;99.90;;;;;;5027777;28;19923;-86
2023/12/18 00:10:05;;;;;;;;;;;2.50;99.90;;;;;;5028150;28;19912;-86
2023/12/18 00:12:31;;;;;;;;;;;2.40;99.90;;;;;;5028992;28;19912;-89
2023/12/18 00:14:56;;;;;;;;;;;2.50;99.90;;;;;;5036537;28;19975;-87
2023/12/18 00:17:22;;;;;;;;;;;2.50;99.90;;;;;;5028191;28;19916;-89
2023/12/18 00:19:47;;;;;;;;;;;2.40;99.90;;;;;;5029930;28;20376;-89
2023/12/18 00:22:13;;;;;;;;;;;2.30;99.90;;;;;;5028639;28;20690;-88
2023/12/18 00:24:38;;;;;;;;;;;2.30;99.90;;;;;;5028824;28;19913;-87
2023/12/18 00:27:04;;;;;;;;;;;2.30;99.90;;;;;;5028225;28;20407;-88
2023/12/18 00:29:30;;;;;;;;;;;2.30;99.90;;;;;;5045295;28;20374;-86
2023/12/18 00:31:55;;;;;;;;;;;2.30;99.90;;;;;;5030786;28;19920;-87
2023/12/18 00:34:21;;;;;;;;;;;2.30;99.90;;;;;;5060208;28;19912;-86
2023/12/18 00:36:46;;;;;;;;;;;2.20;99.90;;;;;;5029201;28;19920;-87
2023/12/18 00:39:15;;;;;;;;;;;2.30;99.90;;;;;;5028606;28;19912;-88
2023/12/18 00:41:41;;;;;;;;;;;2.30;99.90;;;;;;5027804;28;19913;-88
2023/12/18 00:44:06;;;;;;;;;;;2.30;99.90;;;;;;5029364;28;19955;-87
2023/12/18 00:46:32;;;;;;;;;;;2.20;99.90;;;;;;5045608;28;19921;-88
2023/12/18 00:48:58;;;;;;;;;;;2.30;99.90;;;;;;5060921;28;20462;-88
2023/12/18 00:51:23;;;;;;;;;;;2.30;99.90;;;;;;5047709;28;20533;-89
2023/12/18 00:53:49;;;;;;;;;;;2.20;99.90;;;;;;5028809;28;19909;-87
2023/12/18 00:56:15;;;;;;;;;;;2.20;99.90;;;;;;5047282;28;19912;-88
2023/12/18 00:58:40;;;;;;;;;;;2.30;99.90;;;;;;5033352;28;20440;-87
2023/12/18 01:01:06;;;;;;;;;;;2.30;99.90;;;;;;5032549;28;19923;-89
2023/12/18 01:03:31;;;;;;;;;;;2.20;99.90;;;;;;5050743;28;19916;-87
2023/12/18 01:05:57;;;;;;;;;;;2.20;99.90;;;;;;5032424;28;20007;-88
2023/12/18 01:08:22;;;;;;;;;;;2.20;99.90;;;;;;5033922;28;20585;-87
2023/12/18 01:10:48;;;;;;;;;;;2.10;99.90;;;;;;5037032;28;20330;-87
2023/12/18 01:13:13;;;;;;;;;;;2.10;99.90;;;;;;5050953;28;19908;-89
2023/12/18 01:15:39;;;;;;;;;;;2.10;99.90;;;;;;5050565;28;19913;-87
2023/12/18 01:18:04;;;;;;;;;;;2.20;99.90;;;;;;5050160;28;19912;-87
2023/12/18 01:20:30;;;;;;;;;;;2.20;99.90;;;;;;5049510;28;19956;-89
2023/12/18 01:22:55;;;;;;;;;;;2.10;99.90;;;;;;5036857;28;20362;-88
2023/12/18 01:25:21;;;;;;;;;;;2.10;99.90;;;;;;5037004;28;19917;-88
2023/12/18 01:27:46;;;;;;;;;;;2.10;99.90;;;;;;5030484;28;19917;-89
2023/12/18 01:30:12;;;;;;;;;;;2.00;99.90;;;;;;5032209;28;19913;-87
2023/12/18 01:32:38;;;;;;;;;;;2.00;99.90;;;;;;5049509;28;20590;-89
2023/12/18 01:35:03;;;;;;;;;;;2.00;99.90;;;;;;5030231;28;19909;-90
2023/12/18 01:37:29;;;;;;;;;;;2.00;99.90;;;;;;5032473;28;19913;-88
2023/12/18 01:39:55;;;;;;;;;;;1.90;99.90;;;;;;5030663;28;19954;-86
2023/12/18 01:42:20;;;;;;;;;;;1.90;99.90;;;;;;5030713;28;19919;-87
2023/12/18 01:44:48;;;;;;;;;;;1.80;99.90;;;;;;5048422;28;19912;-87
2023/12/18 01:47:14;;;;;;;;;;;1.80;99.90;;;;;;5048131;28;20304;-87
2023/12/18 01:49:39;;;;;;;;;;;1.80;99.90;;;;;;5030415;28;19935;-87
2023/12/18 01:52:05;;;;;;;;;;;1.80;99.90;;;;;;5049457;28;19999;-88
2023/12/18 01:54:31;;;;;;;;;;;1.80;99.90;;;;;;5031136;28;19913;-87
2023/12/18 01:56:57;;;;;;;;;;;1.80;99.90;;;;;;5032397;28;20291;-87
2023/12/18 01:59:23;;;;;;;;;;;1.90;99.90;;;;;;5048336;28;19913;-87
2023/12/18 02:01:49;;;;;;;;;;;1.80;99.90;;;;;;5031108;28;19923;-88
2023/12/18 02:04:16;;;;;;;;;;;1.80;99.90;;;;;;5046822;28;20444;-87
2023/12/18 02:06:42;;;;;;;;;;;1.80;99.90;;;;;;5048487;28;20668;-86
2023/12/18 02:09:08;;;;;;;;;;;1.80;99.90;;;;;;5029984;28;19912;-86
2023/12/18 02:11:34;;;;;;;;;;;1.80;99.90;;;;;;5032320;28;19908;-86
2023/12/18 02:14:00;;;;;;;;;;;1.70;99.90;;;;;;5048704;28;19912;-86
2023/12/18 02:16:25;;;;;;;;;;;1.70;99.90;;;;;;5030121;28;19922;-86
2023/12/18 02:18:51;;;;;;;;;;;1.70;99.90;;;;;;5047288;28;19955;-87
2023/12/18 02:21:22;;;;;;;;;;;1.70;99.90;;;;;;5030244;28;19912;-86
2023/12/18 02:23:48;;;;;;;;;;;1.70;99.90;;;;;;5046526;28;19912;-86
2023/12/18 02:26:15;;;;;;;;;;;1.70;99.90;;;;;;5048082;28;19924;-86
2023/12/18 02:28:41;;;;;;;;;;;1.70;99.90;;;;;;5032011;28;19913;-86
2023/12/18 02:31:07;;;;;;;;;;;1.60;99.90;;;;;;5045923;28;19927;-84
2023/12/18 02:33:32;;;;;;;;;;;1.50;99.90;;;;;;5047674;28;20712;-86
2023/12/18 02:36:01;;;;;;;;;;;1.50;99.90;;;;;;5031672;28;19913;-88
2023/12/18 02:38:27;;;;;;;;;;;1.50;99.90;;;;;;5032666;28;19978;-88
2023/12/18 02:40:52;;;;;;;;;;;1.60;99.90;;;;;;5031879;28;20350;-88
2023/12/18 02:43:18;;;;;;;;;;;1.60;99.90;;;;;;5047563;28;19908;-86
2023/12/18 02:45:43;;;;;;;;;;;1.60;99.90;;;;;;5035809;28;19913;-85
2023/12/18 02:48:09;;;;;;;;;;;1.50;99.90;;;;;;5048319;28;20438;-86
2023/12/18 02:50:34;;;;;;;;;;;1.40;99.90;;;;;;5047684;28;19924;-86
2023/12/18 02:53:00;;;;;;;;;;;1.60;99.90;;;;;;5048383;28;19913;-88
2023/12/18 02:55:26;;;;;;;;;;;1.50;99.90;;;;;;5026907;28;19917;-86
2023/12/18 02:57:51;;;;;;;;;;;1.60;99.90;;;;;;5030309;28;20592;-89
2023/12/18 03:00:17;;;;;;;;;;;1.60;99.90;;;;;;5050805;28;19938;-91
2023/12/18 03:02:42;;;;;;;;;;;1.60;99.90;;;;;;5035308;28;19934;-90
2023/12/18 03:05:08;;;;;;;;;;;1.50;99.90;;;;;;5035347;28;20011;-90
2023/12/18 03:07:34;;;;;;;;;;;1.50;99.90;;;;;;5034761;28;19916;-90
2023/12/18 03:09:59;;;;;;;;;;;1.50;99.90;;;;;;5039240;28;19908;-91
2023/12/18 03:12:25;;;;;;;;;;;1.40;99.90;;;;;;5033622;28;19921;-91
2023/12/18 03:14:50;;;;;;;;;;;1.50;99.90;;;;;;5034783;28;19913;-91
2023/12/18 03:17:16;;;;;;;;;;;1.50;99.90;;;;;;5029484;28;19922;-88
2023/12/18 03:19:41;;;;;;;;;;;1.40;99.90;;;;;;5030725;28;19923;-88
2023/12/18 03:22:07;;;;;;;;;;;1.30;99.90;;;;;;5030075;28;19917;-90
2023/12/18 03:24:32;;;;;;;;;;;1.30;99.90;;;;;;5030166;28;20375;-90
2023/12/18 03:26:58;;;;;;;;;;;1.40;99.90;;;;;;5032246;28;19971;-88
2023/12/18 03:29:23;;;;;;;;;;;1.40;99.90;;;;;;5046071;28;19954;-88
2023/12/18 03:31:49;;;;;;;;;;;1.30;99.90;;;;;;5029527;28;20012;-88
2023/12/18 03:34:14;;;;;;;;;;;1.20;99.90;;;;;;5034964;28;20471;-87
2023/12/18 03:36:40;;;;;;;;;;;1.20;99.90;;;;;;5029849;28;20261;-87
2023/12/18 03:39:05;;;;;;;;;;;1.20;99.90;;;;;;5046223;28;19935;-87
2023/12/18 03:41:31;;;;;;;;;;;1.20;99.90;;;;;;5028586;28;19939;-87
2023/12/18 03:43:56;;;;;;;;;;;1.30;99.90;;;;;;5030058;28;19997;-88
2023/12/18 03:46:22;;;;;;;;;;;1.20;99.90;;;;;;5026503;28;20311;-87
2023/12/18 03:48:47;;;;;;;;;;;1.20;99.90;;;;;;5028907;28;19919;-88
2023/12/18 03:51:13;;;;;;;;;;;1.10;99.90;;;;;;5029530;28;19909;-88
2023/12/18 03:53:38;;;;;;;;;;;1.10;99.90;;;;;;5029419;28;19912;-87
2023/12/18 03:56:04;;;;;;;;;;;1.10;99.90;;;;;;5042605;28;19990;-88
2023/12/18 03:58:30;;;;;;;;;;;1.10;99.90;;;;;;5046947;28;20532;-88
2023/12/18 04:00:55;;;;;;;;;;;1.20;99.90;;;;;;5047074;28;20358;-88
2023/12/18 04:03:21;;;;;;;;;;;1.10;99.90;;;;;;5047510;28;19927;-88
2023/12/18 04:05:46;;;;;;;;;;;1.30;99.90;;;;;;5046301;28;19972;-88
2023/12/18 04:08:12;;;;;;;;;;;1.20;99.90;;;;;;5048991;28;19986;-87
2023/12/18 04:10:38;;;;;;;;;;;1.20;99.90;;;;;;5049719;28;19948;-88
2023/12/18 04:13:03;;;;;;;;;;;1.20;99.90;;;;;;5029633;28;19920;-89
2023/12/18 04:15:29;;;;;;;;;;;1.30;99.90;;;;;;5029566;28;20412;-89
2023/12/18 04:17:55;;;;;;;;;;;1.30;99.90;;;;;;5046862;28;19912;-87
2023/12/18 04:20:21;;;;;;;;;;;1.20;99.90;;;;;;5029192;28;20277;-86
2023/12/18 04:22:46;;;;;;;;;;;1.10;99.90;;;;;;5046485;28;20047;-86
2023/12/18 04:25:12;;;;;;;;;;;1.10;99.90;;;;;;5030738;28;20327;-87
2023/12/18 04:27:37;;;;;;;;;;;1.00;99.90;;;;;;5028495;28;19976;-86
2023/12/18 04:30:04;;;;;;;;;;;1.00;99.90;;;;;;5045474;28;19962;-85
2023/12/18 04:32:29;;;;;;;;;;;1.00;99.90;;;;;;5031394;28;19963;-87
2023/12/18 04:34:55;;;;;;;;;;;1.00;99.90;;;;;;5049497;28;19955;-86
2023/12/18 04:37:21;;;;;;;;;;;1.00;99.90;;;;;;5049482;28;19943;-88
2023/12/18 04:39:47;;;;;;;;;;;1.10;99.90;;;;;;5036274;28;19917;-88
2023/12/18 04:42:12;;;;;;;;;;;1.00;99.90;;;;;;5051876;28;19919;-89
2023/12/18 04:44:38;;;;;;;;;;;0.90;99.90;;;;;;5036041;28;19912;-94
2023/12/18 04:47:03;;;;;;;;;;;1.00;99.90;;;;;;5034243;28;19912;-92
2023/12/18 04:49:29;;;;;;;;;;;1.10;99.90;;;;;;5039324;28;19912;-93
2023/12/18 04:51:54;;;;;;;;;;;1.10;99.90;;;;;;5037604;28;19912;-92
2023/12/18 04:54:20;;;;;;;;;;;1.00;99.90;;;;;;5038219;28;20400;-92
2023/12/18 04:56:45;;;;;;;;;;;1.10;99.90;;;;;;5053641;28;19935;-86
2023/12/18 04:59:11;;;;;;;;;;;1.10;99.90;;;;;;5031949;28;19917;-84
2023/12/18 05:01:37;;;;;;;;;;;1.00;99.90;;;;;;5033713;28;19956;-85
2023/12/18 05:04:03;;;;;;;;;;;1.10;99.90;;;;;;5044045;28;20467;-85
2023/12/18 05:06:28;;;;;;;;;;;1.00;99.90;;;;;;5048940;28;19920;-85
2023/12/18 05:08:54;;;;;;;;;;;1.00;99.90;;;;;;5049717;28;19908;-84
2023/12/18 05:11:20;;;;;;;;;;;1.00;99.90;;;;;;5048174;28;20763;-82
2023/12/18 05:13:46;;;;;;;;;;;0.90;99.90;;;;;;5036113;28;20008;-81
2023/12/18 05:16:12;;;;;;;;;;;1.00;99.90;;;;;;5035242;28;19963;-85
2023/12/18 05:18:38;;;;;;;;;;;0.90;99.90;;;;;;5049346;28;19991;-83
2023/12/18 05:21:04;;;;;;;;;;;0.90;99.90;;;;;;5049302;28;20007;-85
2023/12/18 05:23:29;;;;;;;;;;;0.90;99.90;;;;;;5049692;28;19987;-81
2023/12/18 05:25:55;;;;;;;;;;;0.90;99.90;;;;;;5048855;28;19915;-83
2023/12/18 05:28:20;;;;;;;;;;;0.80;99.90;;;;;;5031518;28;19955;-82
2023/12/18 05:30:46;;;;;;;;;;;0.90;99.90;;;;;;5049451;28;19971;-80
2023/12/18 05:33:11;;;;;;;;;;;1.00;99.90;;;;;;5033455;28;19923;-84
2023/12/18 05:35:37;;;;;;;;;;;1.00;99.90;;;;;;5049673;28;20030;-81
2023/12/18 05:38:02;;;;;;;;;;;0.80;99.90;;;;;;5064841;28;20027;-81
2023/12/18 05:40:28;;;;;;;;;;;0.90;99.90;;;;;;5048690;28;19915;-86
2023/12/18 05:42:53;;;;;;;;;;;1.00;99.90;;;;;;5042286;28;19959;-83
2023/12/18 05:45:19;;;;;;;;;;;0.90;99.90;;;;;;5045870;28;19908;-83
2023/12/18 05:47:45;;;;;;;;;;;0.80;99.90;;;;;;5045152;28;19916;-83
2023/12/18 05:50:11;;;;;;;;;;;0.80;99.90;;;;;;5048653;28;19919;-82
2023/12/18 05:52:36;;;;;;;;;;;0.70;99.90;;;;;;5048699;28;19913;-88
2023/12/18 05:55:02;;;;;;;;;;;0.80;99.90;;;;;;5047967;28;20011;-85
2023/12/18 05:57:27;;;;;;;;;;;0.80;99.90;;;;;;5030990;28;20362;-84
2023/12/18 05:59:53;;;;;;;;;;;0.80;99.90;;;;;;5048273;28;20486;-84
2023/12/18 06:02:19;;;;;;;;;;;0.70;99.90;;;;;;5033962;28;19912;-84
2023/12/18 06:04:44;;;;;;;;;;;0.90;99.90;;;;;;5044017;28;19978;-83
2023/12/18 06:07:10;;;;;;;;;;;0.80;99.90;;;;;;5048192;28;20011;-85
2023/12/18 06:09:36;;;;;;;;;;;0.80;99.90;;;;;;5027630;28;20778;-84
2023/12/18 06:12:02;;;;;;;;;;;0.70;99.90;;;;;;5030815;28;19916;-85
2023/12/18 06:14:27;;;;;;;;;;;0.60;99.90;;;;;;5030780;28;19915;-85
2023/12/18 06:16:53;;;;;;;;;;;0.70;99.90;;;;;;5030284;28;20384;-85
2023/12/18 06:19:18;;;;;;;;;;;0.70;99.90;;;;;;5028530;28;20402;-84
2023/12/18 06:21:44;;;;;;;;;;;0.80;99.90;;;;;;5048597;28;20012;-85
2023/12/18 06:24:09;;;;;;;;;;;0.70;99.90;;;;;;5047485;28;19916;-86
2023/12/18 06:26:35;;;;;;;;;;;0.70;99.90;;;;;;5047505;28;20043;-83
2023/12/18 06:29:00;;;;;;;;;;;0.70;99.90;;;;;;5029936;28;20015;-87
2023/12/18 06:31:26;;;;;;;;;;;0.60;99.90;;;;;;5047853;28;19920;-85
2023/12/18 06:33:51;;;;;;;;;;;0.70;99.90;;;;;;5031107;28;19913;-84
2023/12/18 06:36:20;;;;;;;;;;;0.70;99.90;;;;;;5033717;28;19912;-85
2023/12/18 06:38:46;;;;;;;;;;;0.50;99.90;;;;;;5029909;28;20387;-86
2023/12/18 06:41:11;;;;;;;;;;;0.60;99.90;;;;;;5048256;28;20008;-88
2023/12/18 06:43:38;;;;;;;;;;;0.60;99.90;;;;;;5032227;28;19919;-88
2023/12/18 06:46:04;;;;;;;;;;;0.50;99.90;;;;;;5036680;28;19916;-87
2023/12/18 06:48:30;;;;;;;;;;;0.60;99.90;;;;;;5031047;28;19912;-86
2023/12/18 06:50:55;;;;;;;;;;;0.50;99.90;;;;;;5030599;28;19916;-88
2023/12/18 06:53:21;;;;;;;;;;;0.40;99.90;;;;;;5047864;28;20093;-85
2023/12/18 06:55:46;;;;;;;;;;;0.50;99.90;;;;;;5035329;28;20015;-86
2023/12/18 06:58:12;;;;;;;;;;;0.50;99.90;;;;;;5030270;28;20019;-85
2023/12/18 07:00:37;;;;;;;;;;;0.60;99.90;;;;;;5047550;28;19916;-85
2023/12/18 07:03:03;;;;;;;;;;;0.50;99.90;;;;;;5047045;28;20387;-86
2023/12/18 07:05:29;;;;;;;;;;;0.50;99.90;;;;;;5027971;28;19913;-85
2023/12/18 07:07:55;;;;;;;;;;;0.70;99.90;;;;;;5047859;28;20299;-86
2023/12/18 07:10:21;;;;;;;;;;;0.60;99.90;;;;;;5032720;28;19970;-90
2023/12/18 07:12:47;;;;;;;;;;;0.60;99.90;;;;;;5030777;28;19917;-89
2023/12/18 07:15:12;;;;;;;;;;;0.50;99.90;;;;;;5032797;28;19913;-87
2023/12/18 07:17:38;;;;;;;;;;;0.50;99.90;;;;;;5047121;28;19912;-87
2023/12/18 07:20:05;;;;;;;;;;;0.50;99.90;;;;;;5035452;28;20651;-88
2023/12/18 07:22:32;;;;;;;;;;;0.50;99.90;;;;;;5034755;28;19919;-90
2023/12/18 07:24:58;;;;;;;;;;;0.40;99.90;;;;;;5031587;28;19908;-87
2023/12/18 07:27:23;;;;;;;;;;;0.50;99.90;;;;;;5031005;28;19923;-86
2023/12/18 07:29:49;;;;;;;;;;;0.50;99.90;;;;;;5031763;28;20664;-86
2023/12/18 07:32:14;;;;;;;;;;;0.60;99.90;;;;;;5046376;28;20974;-86
2023/12/18 07:34:49;;;;;;;;;;;0.50;99.90;;;;;;5047417;28;19955;-93
2023/12/18 07:37:15;;;;;;;;;;;0.50;99.90;;;;;;5032107;28;19916;-90
2023/12/18 07:39:40;;;;;;;;;;;0.60;99.90;;;;;;5031833;28;19908;-91
2023/12/18 07:42:06;;;;;;;;;;;0.60;99.90;;;;;;5031362;28;19915;-89
2023/12/18 07:44:31;;;;;;;;;;;0.60;99.90;;;;;;5031536;28;19912;-90
2023/12/18 07:46:57;;;;;;;;;;;0.60;99.90;;;;;;5049392;28;20718;-89
2023/12/18 07:49:22;;;;;;;;;;;0.70;99.90;;;;;;5064857;28;19943;-90
2023/12/18 07:51:48;;;;;;;;;;;0.70;99.90;;;;;;5030092;28;19982;-91
2023/12/18 07:54:14;;;;;;;;;;;0.70;99.90;;;;;;5032308;28;19966;-90
2023/12/18 07:56:40;;;;;;;;;;;1.00;99.90;;;;;;5035400;28;20346;-90
2023/12/18 07:59:07;;;;;;;;;;;1.20;99.90;;;;;;5035851;28;19916;-93
2023/12/18 08:01:33;;;;;;;;;;;1.20;99.90;;;;;;5035998;28;19920;-92
2023/12/18 08:03:58;;;;;;;;;;;1.40;99.90;;;;;;5034257;28;20439;-91
2023/12/18 08:06:25;;;;;;;;;;;1.90;99.00;;;;;;5039656;28;19913;-91
2023/12/18 08:08:50;;;;;;;;;;;2.10;98.60;;;;;;5034346;28;19908;-91
2023/12/18 08:11:16;;;;;;;;;;;2.30;97.80;;;;;;5035551;28;19915;-90
2023/12/18 08:13:42;;;;;;;;;;;2.40;97.30;;;;;;5035752;28;19916;-89
2023/12/18 08:16:09;;;;;;;;;;;2.50;97.00;;;;;;5035750;28;20560;-89
2023/12/18 08:18:34;;;;;;;;;;;2.60;96.70;;;;;;5036155;28;19908;-91
2023/12/18 08:21:00;;;;;;;;;;;2.70;96.30;;;;;;5032792;28;19920;-89
2023/12/18 08:23:26;;;;;;;;;;;2.70;96.10;;;;;;5038844;28;19908;-90
2023/12/18 08:25:52;;;;;;;;;;;2.70;96.20;;;;;;5034905;28;19916;-90
2023/12/18 08:28:17;;;;;;;;;;;2.80;96.20;;;;;;5036074;28;19913;-90
2023/12/18 08:30:44;;;;;;;;;;;2.90;96.10;;;;;;5035581;28;19928;-90
2023/12/18 08:33:09;;;;;;;;;;;2.90;96.00;;;;;;5035994;28;19905;-90
2023/12/18 08:35:35;;;;;;;;;;;2.90;96.00;;;;;;5035004;28;19908;-91
2023/12/18 08:38:01;;;;;;;;;;;3.00;95.50;;;;;;5035118;28;19909;-90
2023/12/18 08:40:26;;;;;;;;;;;3.10;95.30;;;;;;5036271;28;19962;-90
2023/12/18 08:42:52;;;;;;;;;;;3.20;95.30;;;;;;5035558;28;20582;-90
2023/12/18 08:45:17;;;;;;;;;;;3.30;95.20;;;;;;5029145;28;19915;-91
2023/12/18 08:47:43;;;;;;;;;;;3.50;94.80;;;;;;5035711;28;19913;-91
2023/12/18 08:50:09;;;;;;;;;;;3.60;94.40;;;;;;5055022;28;19909;-94
2023/12/18 08:52:35;;;;;;;;;;;3.60;94.50;;;;;;5038989;28;19904;-95
2023/12/18 08:55:01;;;;;;;;;;;3.80;94.30;;;;;;5054120;28;19978;-95
2023/12/18 08:57:27;;;;;;;;;;;4.00;94.00;;;;;;5034174;28;19905;-94
2023/12/18 08:59:54;;;;;;;;;;;4.00;93.40;;;;;;5038172;28;19915;-94
2023/12/18 09:02:19;;;;;;;;;;;4.10;93.70;;;;;;5038829;28;20261;-95
2023/12/18 09:04:45;;;;;;;;;;;4.10;93.30;;;;;;5037897;28;19932;-95
2023/12/18 09:07:11;;;;;;;;;;;4.20;93.10;;;;;;5034033;28;19916;-92
2023/12/18 09:09:39;;;;;;;;;;;4.40;92.90;;;;;;5036205;28;19912;-91
2023/12/18 09:12:08;;;;;;;;;;;4.40;92.70;;;;;;5032005;28;19904;-90
2023/12/18 09:14:33;;;;;;;;;;;4.50;92.60;;;;;;5036936;28;19915;-90
2023/12/18 09:16:59;;;;;;;;;;;4.40;92.40;;;;;;5036392;28;19904;-89
2023/12/18 09:19:25;;;;;;;;;;;4.50;92.60;;;;;;5034025;28;19913;-92
2023/12/18 09:21:51;;;;;;;;;;;4.60;92.40;;;;;;5039813;28;19915;-91
2023/12/18 09:24:16;;;;;;;;;;;4.60;92.00;;;;;;5038573;28;19909;-90
2023/12/18 09:26:42;;;;;;;;;;;4.80;92.20;;;;;;5032917;28;20399;-89
2023/12/18 09:29:08;;;;;;;;;;;4.80;91.80;;;;;;5032620;28;19976;-89
2023/12/18 09:31:33;;;;;;;;;;;4.90;91.50;;;;;;5032051;28;20455;-88
2023/12/18 09:33:59;;;;;;;;;;;5.00;91.60;;;;;;5032063;28;20026;-88
2023/12/18 09:36:25;;;;;;;;;;;5.00;90.90;;;;;;5031768;28;19909;-88
2023/12/18 09:38:50;;;;;;;;;;;5.00;91.00;;;;;;5031416;28;19974;-87
2023/12/18 09:41:26;;;;;;;;;;;5.10;91.00;;;;;;5030675;28;19908;-87
2023/12/18 09:43:52;;;;;;;;;;;5.30;90.80;;;;;;5029832;28;19990;-87
2023/12/18 09:46:20;;;;;;;;;;;5.10;90.90;;;;;;5049308;28;19909;-88
2023/12/18 09:48:45;;;;;;;;;;;5.10;90.90;;;;;;5031580;28;19909;-88
2023/12/18 09:51:13;;;;;;;;;;;5.10;90.80;;;;;;5049599;28;20262;-89
2023/12/18 09:53:39;;;;;;;;;;;5.30;90.90;;;;;;5032150;28;19905;-88
2023/12/18 09:56:05;;;;;;;;;;;5.30;90.90;;;;;;5032322;28;19996;-89
2023/12/18 09:58:31;;;;;;;;;;;5.30;90.90;;;;;;5032256;28;20485;-89
2023/12/18 10:00:57;;;;;;;;;;;5.40;90.40;;;;;;5032171;28;19909;-88
2023/12/18 10:03:22;;;;;;;;;;;5.40;90.00;;;;;;5031724;28;19909;-88
2023/12/18 10:05:48;;;;;;;;;;;5.30;90.10;;;;;;5031263;28;19994;-90
2023/12/18 10:08:14;;;;;;;;;;;5.40;89.90;;;;;;5032360;28;19920;-88
2023/12/18 10:10:41;;;;;;;;;;;5.60;90.30;;;;;;5031929;28;19908;-88
2023/12/18 10:13:09;;;;;;;;;;;5.60;90.30;;;;;;5031753;28;19925;-88
2023/12/18 10:15:35;;;;;;;;;;;5.70;90.20;;;;;;5031990;28;19948;-88
2023/12/18 10:18:02;;;;;;;;;;;5.80;90.10;;;;;;5032353;28;19959;-88
2023/12/18 10:20:28;;;;;;;;;;;5.80;90.10;;;;;;5031996;28;19916;-88
2023/12/18 10:22:53;;;;;;;;;;;5.90;89.40;;;;;;5032486;28;19912;-90
2023/12/18 10:25:19;;;;;;;;;;;5.90;88.00;;;;;;5037957;28;20182;-89
2023/12/18 10:27:45;;;;;;;;;;;6.10;89.50;;;;;;5036912;28;19920;-89
2023/12/18 10:30:11;;;;;;;;;;;6.10;90.10;;;;;;5032898;28;19923;-89
2023/12/18 10:32:37;;;;;;;;;;;6.00;88.80;;;;;;5031241;28;19917;-89
2023/12/18 10:35:03;;;;;;;;;;;6.10;88.30;;;;;;5036027;28;19909;-88
2023/12/18 10:37:29;;;;;;;;;;;6.20;88.10;;;;;;5031113;28;19972;-88
2023/12/18 10:39:59;;;;;;;;;;;6.30;88.10;;;;;;5050520;28;19977;-89
2023/12/18 10:42:30;;;;;;;;;;;6.40;88.00;;;;;;5056619;28;19970;-89
2023/12/18 10:44:58;;;;;;;;;;;6.30;87.00;;;;;;5032203;28;19912;-88
2023/12/18 10:47:25;;;;;;;;;;;6.40;88.30;;;;;;5032459;28;19908;-89
2023/12/18 10:49:52;;;;;;;;;;;6.60;86.20;;;;;;5049448;28;19921;-89
2023/12/18 10:52:18;;;;;;;;;;;6.60;86.40;;;;;;5049442;28;19915;-89
2023/12/18 10:54:45;;;;;;;;;;;6.60;85.80;;;;;;5049504;28;19940;-89
2023/12/18 10:57:10;;;;;;;;;;;6.70;86.60;;;;;;5049079;28;19913;-88
2023/12/18 10:59:37;;;;;;;;;;;6.80;85.30;;;;;;5031319;28;19999;-89
2023/12/18 11:02:05;;;;;;;;;;;6.80;85.90;;;;;;5049382;28;19926;-89
2023/12/18 11:04:31;;;;;;;;;;;7.00;86.50;;;;;;5030342;28;20470;-90
2023/12/18 11:06:57;;;;;;;;;;;7.00;84.80;;;;;;5033079;28;19966;-89
2023/12/18 11:09:23;;;;;;;;;;;7.00;84.80;;;;;;5027924;28;20454;-89
2023/12/18 11:11:49;;;;;;;;;;;7.10;85.00;;;;;;5031271;28;19982;-89
2023/12/18 11:14:14;;;;;;;;;;;7.00;83.40;;;;;;5047964;28;19999;-89
2023/12/18 11:16:58;;;;;;;;;;;7.10;83.60;;;;;;5031097;28;20425;-88
2023/12/18 11:19:31;;;;;;;;;;;7.10;83.40;;;;;;5030413;28;20379;-88
2023/12/18 11:22:01;;;;;;;;;;;7.20;83.90;;;;;;5026279;28;19916;-89
2023/12/18 11:24:34;;;;;;;;;;;7.40;84.90;;;;;;5048095;28;19908;-88
2023/12/18 11:27:00;;;;;;;;;;;7.40;84.70;;;;;;5030844;28;19913;-89
2023/12/18 11:29:37;;;;;;;;;;;7.40;84.70;;;;;;5047933;28;20403;-88
2023/12/18 11:32:03;;;;;;;;;;;7.40;84.40;;;;;;5047352;28;20681;-88
2023/12/18 11:34:29;;;;;;;;;;;7.30;83.70;;;;;;5047565;28;19916;-88
2023/12/18 11:36:54;;;;;;;;;;;7.30;85.20;;;;;;5029658;28;20049;-88
2023/12/18 11:39:21;;;;;;;;;;;7.40;86.20;;;;;;5030022;28;20351;-88
2023/12/18 11:41:47;;;;;;;;;;;7.40;86.00;;;;;;5028633;28;19951;-88
2023/12/18 11:44:16;;;;;;;;;;;7.30;84.50;;;;;;5030103;28;20893;-88
2023/12/18 11:46:44;;;;;;;;;;;7.40;85.60;;;;;;5047319;28;20050;-88
2023/12/18 11:49:11;;;;;;;;;;;7.40;85.70;;;;;;5030882;28;19909;-88
2023/12/18 11:51:40;;;;;;;;;;;7.40;86.20;;;;;;5030888;28;19912;-88
2023/12/18 11:54:05;;;;;;;;;;;7.40;88.30;;;;;;5030382;28;19940;-89
2023/12/18 11:56:39;;;;;;;;;;;7.40;86.90;;;;;;5030882;28;20034;-89
2023/12/18 11:59:06;;;;;;;;;;;7.40;88.00;;;;;;5030549;28;20410;-88
2023/12/18 12:01:32;;;;;;;;;;;7.40;86.60;;;;;;5029520;28;19908;-87
2023/12/18 12:03:57;;;;;;;;;;;7.50;87.40;;;;;;5029475;28;20712;-88
2023/12/18 12:06:24;;;;;;;;;;;7.50;87.40;;;;;;5028911;28;19951;-88
2023/12/18 12:08:50;;;;;;;;;;;7.50;86.70;;;;;;5026880;28;20357;-88
2023/12/18 12:11:16;;;;;;;;;;;7.60;87.50;;;;;;5030271;28;19974;-88
2023/12/18 12:13:41;;;;;;;;;;;7.70;87.30;;;;;;5029913;28;19916;-88
2023/12/18 12:16:07;;;;;;;;;;;7.70;87.70;;;;;;5029350;28;19951;-88
2023/12/18 12:18:46;;;;;;;;;;;7.80;88.70;;;;;;5047227;28;20424;-88
2023/12/18 12:21:12;;;;;;;;;;;7.70;88.20;;;;;;5024870;28;20436;-89
2023/12/18 12:23:37;;;;;;;;;;;7.80;89.90;;;;;;5029917;28;20604;-88
2023/12/18 12:26:04;;;;;;;;;;;7.80;87.70;;;;;;5047556;28;19919;-87
2023/12/18 12:28:30;;;;;;;;;;;7.80;87.40;;;;;;5029638;28;19915;-86
2023/12/18 12:30:56;;;;;;;;;;;7.90;86.10;;;;;;5029727;28;19928;-88
2023/12/18 12:33:22;;;;;;;;;;;7.90;86.40;;;;;;5033073;28;19909;-87
2023/12/18 12:35:47;;;;;;;;;;;8.00;86.50;;;;;;5030859;28;19908;-87
2023/12/18 12:38:14;;;;;;;;;;;8.00;87.50;;;;;;5029171;28;19980;-87
2023/12/18 12:40:40;;;;;;;;;;;7.90;87.10;;;;;;5030262;28;19987;-87
2023/12/18 12:43:06;;;;;;;;;;;8.00;87.40;;;;;;5028464;28;19915;-87
2023/12/18 12:45:32;;;;;;;;;;;8.10;87.70;;;;;;5047900;28;20763;-88
2023/12/18 12:47:58;;;;;;;;;;;8.10;88.90;;;;;;5048572;28;19938;-88
2023/12/18 12:50:24;;;;;;;;;;;8.10;88.10;;;;;;5063526;28;20438;-91
2023/12/18 12:52:49;;;;;;;;;;;8.00;88.40;;;;;;5033407;28;19977;-90
2023/12/18 12:55:15;;;;;;;;;;;8.20;86.90;;;;;;5036191;28;19916;-89
2023/12/18 12:57:41;;;;;;;;;;;8.30;87.60;;;;;;5033679;28;20555;-91
2023/12/18 13:00:08;;;;;;;;;;;8.40;87.40;;;;;;5036404;28;19958;-91
2023/12/18 13:02:34;;;;;;;;;;;8.40;87.70;;;;;;5034371;28;19958;-91
2023/12/18 13:05:00;;;;;;;;;;;8.40;86.10;;;;;;5032630;28;19908;-89
2023/12/18 13:07:25;;;;;;;;;;;8.30;86.60;;;;;;5036987;28;19912;-91
2023/12/18 13:09:51;;;;;;;;;;;8.10;86.90;;;;;;5035766;28;20520;-89
2023/12/18 13:12:17;;;;;;;;;;;8.10;86.90;;;;;;5042581;28;20678;-91
2023/12/18 13:14:43;;;;;;;;;;;8.20;87.30;;;;;;5034894;28;19966;-88
2023/12/18 13:17:09;;;;;;;;;;;8.20;87.10;;;;;;5034446;28;19908;-88
2023/12/18 13:19:35;;;;;;;;;;;8.10;87.50;;;;;;5033930;28;19930;-89
2023/12/18 13:22:01;;;;;;;;;;;8.00;87.70;;;;;;5034858;28;20384;-90
2023/12/18 13:24:28;;;;;;;;;;;8.00;87.40;;;;;;5029247;28;20406;-90
2023/12/18 13:26:53;;;;;;;;;;;8.20;88.00;;;;;;5051762;28;19950;-91
2023/12/18 13:29:19;;;;;;;;;;;8.30;87.50;;;;;;5034660;28;19905;-89
2023/12/18 13:31:44;;;;;;;;;;;8.40;87.00;;;;;;5034750;28;19921;-90
2023/12/18 13:34:10;;;;;;;;;;;8.70;84.40;;;;;;5035180;28;19904;-90
2023/12/18 13:36:35;;;;;;;;;;;8.70;84.80;;;;;;5033722;28;20427;-91
2023/12/18 13:39:01;;;;;;;;;;;8.70;83.60;;;;;;5051473;28;20023;-90
2023/12/18 13:41:29;;;;;;;;;;;8.70;83.20;;;;;;5033047;28;19908;-91
2023/12/18 13:43:55;;;;;;;;;;;8.60;83.20;;;;;;5033910;28;19905;-90
2023/12/18 13:46:21;;;;;;;;;;;8.50;83.30;;;;;;5050686;28;19905;-88
2023/12/18 13:48:46;;;;;;;;;;;8.40;83.70;;;;;;5049252;28;19909;-88
2023/12/18 13:51:12;;;;;;;;;;;8.30;85.00;;;;;;5049992;28;19963;-88
2023/12/18 13:53:37;;;;;;;;;;;8.00;85.40;;;;;;5049911;28;19913;-87
2023/12/18 13:56:03;;;;;;;;;;;7.90;86.20;;;;;;5049497;28;19916;-88
2023/12/18 13:58:28;;;;;;;;;;;7.90;85.50;;;;;;5050273;28;20320;-89
2023/12/18 14:00:54;;;;;;;;;;;8.10;82.80;;;;;;5030970;28;19940;-88
2023/12/18 14:03:19;;;;;;;;;;;8.30;79.80;;;;;;5048927;28;19908;-87
2023/12/18 14:05:45;;;;;;;;;;;8.40;90.60;;;;;;5046980;28;19920;-89
2023/12/18 14:08:10;;;;;;;;;;;8.40;91.50;;;;;;5031512;28;19924;-88
2023/12/18 14:10:36;;;;;;;;;;;8.50;94.60;;;;;;5027162;28;19916;-90
2023/12/18 14:13:02;;;;;;;;;;;8.60;95.40;;;;;;5031968;28;19921;-88
2023/12/18 14:15:28;;;;;;;;;;;8.70;96.70;;;;;;5031293;28;19954;-88
2023/12/18 14:17:53;;;;;;;;;;;8.50;96.10;;;;;;5036807;28;19948;-87
2023/12/18 14:20:19;;;;;;;;;;;8.30;96.60;;;;;;5031260;28;20352;-88
2023/12/18 14:22:44;;;;;;;;;;;8.40;98.30;;;;;;5031452;28;20292;-88